Time;durP1;ratioP1;P1;durP2;ratioP2;P2;SDS_P1;SDS_P2;PMS_P1;PMS_P2;Temp;Humidity;BMP_temperature;BMP_pressure;BME280_temperature;BME280_humidity;BME280_pressure;Samples;Min_cycle;Max_cycle;Signal;HPM_P1;HPM_P2
2022/02/25 00:00:53;;;;;;;13.50;5.93;;;;;;;3.42;42.01;94172.34;5023962;28;20046;-77
2022/02/25 00:03:19;;;;;;;15.15;6.78;;;;;;;3.37;41.84;94152.91;5031676;28;20340;-77
2022/02/25 00:05:53;;;;;;;11.25;5.35;;;;;;;3.51;41.57;94170.78;5028414;28;20159;-76
2022/02/25 00:08:18;;;;;;;6.18;3.17;;;;;;;3.54;41.86;94167.63;5021878;28;20032;-77
2022/02/25 00:10:44;;;;;;;5.65;2.78;;;;;;;3.43;41.49;94137.91;5022940;28;20928;-76
2022/02/25 00:13:10;;;;;;;9.07;3.63;;;;;;;3.50;41.71;94146.34;5043534;28;20029;-75
2022/02/25 00:15:36;;;;;;;5.40;3.53;;;;;;;3.60;41.62;94156.09;5028666;28;20141;-76
2022/02/25 00:18:02;;;;;;;4.32;2.75;;;;;;;3.51;41.49;94136.63;5026032;28;20033;-77
2022/02/25 00:20:27;;;;;;;4.25;2.60;;;;;;;3.50;41.61;94132.41;5021067;28;20045;-75
2022/02/25 00:22:52;;;;;;;5.78;2.65;;;;;;;3.54;41.39;94139.50;5029556;28;20036;-77
2022/02/25 00:25:18;;;;;;;7.80;2.55;;;;;;;3.49;41.34;94136.88;5022506;28;20059;-77
2022/02/25 00:27:44;;;;;;;5.10;2.97;;;;;;;3.60;41.25;94145.56;5021203;28;20738;-76
2022/02/25 00:30:12;;;;;;;6.00;2.83;;;;;;;3.56;41.41;94141.88;5026690;28;20156;-76
2022/02/25 00:32:38;;;;;;;3.50;2.30;;;;;;;3.64;41.26;94138.72;5019669;28;20805;-76
2022/02/25 00:35:04;;;;;;;1.73;1.50;;;;;;;3.66;41.22;94136.63;5028265;28;20028;-77
2022/02/25 00:37:30;;;;;;;2.97;1.52;;;;;;;3.64;41.28;94134.25;5041480;28;20197;-77
2022/02/25 00:39:56;;;;;;;2.22;1.60;;;;;;;3.56;41.50;94128.72;5033722;28;20111;-76
2022/02/25 00:42:21;;;;;;;3.05;1.88;;;;;;;3.51;41.70;94128.72;5024820;28;20449;-72
2022/02/25 00:44:49;;;;;;;4.38;1.80;;;;;;;3.39;41.69;94106.09;5022639;28;20606;-74
2022/02/25 00:47:14;;;;;;;4.25;1.67;;;;;;;3.53;41.61;94113.44;5025995;28;20740;-72
2022/02/25 00:49:59;;;;;;;4.10;1.90;;;;;;;3.55;41.62;94120.03;5043628;28;20017;-73
2022/02/25 00:52:26;;;;;;;27.73;8.88;;;;;;;3.45;41.94;94113.97;5032492;28;20055;-74
2022/02/25 00:54:51;;;;;;;34.25;10.63;;;;;;;3.43;42.11;94110.84;5036915;28;20479;-71
2022/02/25 00:57:18;;;;;;;12.55;5.13;;;;;;;3.39;41.99;94111.34;5017951;28;20037;-74
2022/02/25 00:59:43;;;;;;;14.40;5.80;;;;;;;3.46;41.83;94102.41;5028558;28;20033;-72
2022/02/25 01:02:09;;;;;;;12.75;7.00;;;;;;;3.27;41.96;94087.16;5037706;28;20546;-73
2022/02/25 01:04:34;;;;;;;15.80;7.05;;;;;;;3.46;41.96;94111.09;5032439;28;20764;-72
2022/02/25 01:07:00;;;;;;;9.43;3.45;;;;;;;3.41;41.79;94108.47;5024766;28;20060;-72
2022/02/25 01:09:25;;;;;;;6.70;2.83;;;;;;;3.42;41.92;94115.31;5027387;28;20045;-72
2022/02/25 01:11:51;;;;;;;4.60;3.35;;;;;;;3.33;41.93;94091.34;5021200;28;20038;-71
2022/02/25 01:14:17;;;;;;;7.43;4.38;;;;;;;3.47;41.93;94106.63;5035361;28;20088;-71
2022/02/25 01:16:43;;;;;;;6.18;3.08;;;;;;;3.44;41.86;94107.13;5021199;28;20028;-71
2022/02/25 01:19:08;;;;;;;5.72;3.80;;;;;;;3.45;41.88;94100.84;5026870;28;20041;-70
2022/02/25 01:21:35;;;;;;;6.93;4.18;;;;;;;3.45;41.88;94101.63;5018725;28;20052;-74
2022/02/25 01:24:01;;;;;;;15.43;5.05;;;;;;;3.32;41.97;94087.16;5039155;28;20076;-72
2022/02/25 01:26:27;;;;;;;5.05;3.10;;;;;;;3.27;42.05;94110.81;5029014;28;20029;-73
2022/02/25 01:28:53;;;;;;;5.65;4.10;;;;;;;3.24;42.16;94092.91;5028526;28;20025;-73
2022/02/25 01:31:19;;;;;;;11.10;4.60;;;;;;;3.21;41.84;94084.75;5029939;28;20021;-71
2022/02/25 01:33:46;;;;;;;6.50;3.50;;;;;;;3.19;42.35;94090.28;5019166;28;20128;-73
2022/02/25 01:36:12;;;;;;;4.57;2.25;;;;;;;2.93;42.50;94052.66;5024722;28;20041;-74
2022/02/25 01:38:37;;;;;;;11.25;4.55;;;;;;;3.17;42.38;94087.13;5020830;28;20513;-74
2022/02/25 01:41:08;;;;;;;9.55;4.72;;;;;;;3.12;42.23;94086.31;5028380;28;20025;-74
2022/02/25 01:43:34;;;;;;;3.42;2.35;;;;;;;3.11;42.29;94082.91;5026115;28;20810;-72
2022/02/25 01:46:17;;;;;;;5.13;2.22;;;;;;;3.14;42.32;94086.84;5027855;28;20140;-74
2022/02/25 01:48:43;;;;;;;2.67;1.80;;;;;;;3.13;42.39;94080.81;5025946;28;20606;-71
2022/02/25 01:51:08;;;;;;;1.95;1.55;;;;;;;2.96;42.63;94048.72;5026048;28;20059;-73
2022/02/25 01:53:38;;;;;;;4.55;1.67;;;;;;;3.12;42.30;94068.72;5025047;28;20060;-73
2022/02/25 01:56:04;;;;;;;3.83;1.95;;;;;;;3.09;41.97;94058.72;5029796;28;20725;-70
2022/02/25 01:58:29;;;;;;;2.17;1.40;;;;;;;3.12;42.03;94073.97;5027371;28;20044;-72
2022/02/25 02:01:03;;;;;;;3.30;2.65;;;;;;;3.07;42.24;94066.09;5025650;28;20187;-75
2022/02/25 02:03:28;;;;;;;5.00;2.13;;;;;;;3.19;42.07;94071.88;5029303;28;20573;-72
2022/02/25 02:05:54;;;;;;;3.72;1.58;;;;;;;3.21;42.06;94066.38;5028008;28;20044;-71
2022/02/25 02:08:19;;;;;;;2.90;1.60;;;;;;;3.05;42.22;94051.59;5024853;28;20116;-72
2022/02/25 02:10:45;;;;;;;3.03;1.80;;;;;;;3.13;42.31;94062.41;5020143;28;20514;-74
2022/02/25 02:13:13;;;;;;;1.98;1.60;;;;;;;3.05;42.46;94060.28;5028679;28;20055;-75
2022/02/25 02:15:45;;;;;;;4.23;1.53;;;;;;;2.67;42.66;94021.31;5031588;28;20049;-74
2022/02/25 02:18:10;;;;;;;7.43;2.47;;;;;;;2.77;42.86;94042.34;5024424;28;20033;-74
2022/02/25 02:20:36;;;;;;;2.45;1.83;;;;;;;2.80;42.72;94039.19;5023293;28;20042;-74
2022/02/25 02:23:01;;;;;;;5.20;2.60;;;;;;;2.87;43.00;94058.16;5027385;28;20183;-74
2022/02/25 02:25:27;;;;;;;2.42;2.10;;;;;;;2.69;42.89;94021.84;5023731;28;20045;-75
2022/02/25 02:30:36;;;;;;;1.92;1.75;;;;;;;2.68;42.87;94013.19;5020877;28;20044;-74
2022/02/25 02:33:02;;;;;;;6.78;3.95;;;;;;;2.79;42.77;94027.91;5025296;28;20546;-74
2022/02/25 02:35:28;;;;;;;4.88;3.20;;;;;;;2.86;42.88;94038.97;5026804;28;20143;-75
2022/02/25 02:37:53;;;;;;;6.93;2.78;;;;;;;2.61;43.16;94035.47;5027290;28;20079;-75
2022/02/25 02:40:19;;;;;;;5.75;3.90;;;;;;;2.67;43.34;94029.19;5029058;28;20053;-72
2022/02/25 02:42:46;;;;;;;7.75;4.43;;;;;;;2.75;43.34;94047.06;5021596;28;20139;-74
2022/02/25 02:45:15;;;;;;;5.28;3.45;;;;;;;2.76;43.47;94051.28;5032505;28;20912;-74
2022/02/25 02:47:45;;;;;;;10.15;3.95;;;;;;;2.62;43.36;94016.03;5020820;28;20582;-75
2022/02/25 02:50:12;;;;;;;10.93;5.10;;;;;;;2.79;43.36;94042.91;5031992;28;20033;-75
2022/02/25 02:52:39;;;;;;;17.83;4.45;;;;;;;2.67;43.24;94029.97;5023392;28;20021;-73
2022/02/25 02:55:05;;;;;;;7.70;4.55;;;;;;;2.50;43.35;94014.44;5021960;28;20650;-75
2022/02/25 02:57:36;;;;;;;6.25;4.00;;;;;;;2.61;43.35;94036.25;5030661;28;20040;-73
2022/02/25 03:00:04;;;;;;;9.00;3.17;;;;;;;2.55;43.35;94031.28;5028933;28;20041;-74
2022/02/25 03:02:30;;;;;;;9.45;3.92;;;;;;;2.55;43.29;94042.53;5024841;28;20035;-73
2022/02/25 03:04:55;;;;;;;7.10;4.10;;;;;;;2.44;43.11;94017.31;5030068;28;20037;-75
2022/02/25 03:07:21;;;;;;;8.50;3.58;;;;;;;2.52;43.40;94030.72;5024864;28;20103;-74
2022/02/25 03:09:46;;;;;;;11.25;5.10;;;;;;;2.50;43.43;94042.50;5025000;28;20707;-75
2022/02/25 03:12:12;;;;;;;10.77;5.43;;;;;;;2.32;43.47;94021.97;5026547;28;20025;-74
2022/02/25 03:14:40;;;;;;;13.23;7.45;;;;;;;2.44;43.77;94035.69;5025270;28;20127;-75
2022/02/25 03:17:05;;;;;;;15.18;6.57;;;;;;;2.40;44.01;94035.38;5027250;28;20035;-72
2022/02/25 03:19:31;;;;;;;11.77;7.07;;;;;;;2.31;43.85;94013.31;5029592;28;20384;-73
2022/02/25 03:21:56;;;;;;;14.02;7.07;;;;;;;2.40;44.01;94035.38;5023988;28;20037;-72
2022/02/25 03:24:22;;;;;;;15.00;9.77;;;;;;;2.33;44.46;94032.22;5027047;28;20045;-71
2022/02/25 03:26:48;;;;;;;13.98;9.05;;;;;;;2.41;44.67;94036.97;5022664;28;20433;-70
2022/02/25 03:29:13;;;;;;;22.27;9.25;;;;;;;2.35;44.62;94032.75;5023930;28;20040;-72
2022/02/25 03:31:39;;;;;;;13.07;9.18;;;;;;;2.19;44.76;94020.63;5022594;28;20666;-71
2022/02/25 03:34:05;;;;;;;18.13;10.82;;;;;;;2.37;44.59;94035.13;5025365;28;20674;-71
2022/02/25 03:36:30;;;;;;;23.42;10.65;;;;;;;2.38;44.95;94042.75;5022851;28;20033;-73
2022/02/25 03:38:56;;;;;;;17.52;10.65;;;;;;;2.38;44.77;94039.34;5031443;28;20044;-70
2022/02/25 03:41:21;;;;;;;30.48;12.15;;;;;;;2.16;44.81;94023.72;5026216;28;20497;-73
2022/02/25 03:43:47;;;;;;;21.98;11.80;;;;;;;2.37;45.14;94051.66;5020873;28;20025;-72
2022/02/25 03:46:12;;;;;;;25.80;12.10;;;;;;;2.42;45.00;94054.31;5039178;28;20049;-76
2022/02/25 03:48:37;;;;;;;26.52;11.80;;;;;;;2.41;44.90;94054.56;5022259;28;20434;-74
2022/02/25 03:51:04;;;;;;;18.10;9.13;;;;;;;2.33;45.26;94055.84;5025369;28;20059;-74
2022/02/25 03:53:29;;;;;;;14.70;7.85;;;;;;;2.19;45.03;94033.75;5029593;28;20060;-74
2022/02/25 03:55:54;;;;;;;14.02;7.05;;;;;;;2.21;45.11;94043.97;5023916;28;20589;-73
2022/02/25 03:58:20;;;;;;;10.90;5.75;;;;;;;2.27;44.75;94046.38;5025785;28;20091;-73
2022/02/25 04:00:46;;;;;;;7.88;5.10;;;;;;;2.24;44.88;94044.25;5020904;28;20398;-73
2022/02/25 04:03:12;;;;;;;10.10;6.25;;;;;;;2.36;44.84;94065.81;5024255;28;20045;-74
2022/02/25 04:05:37;;;;;;;11.93;7.03;;;;;;;2.22;44.83;94046.34;5025478;28;20041;-75
2022/02/25 04:08:04;;;;;;;14.73;8.63;;;;;;;2.51;44.66;94067.72;5025407;28;20126;-75
2022/02/25 04:10:32;;;;;;;18.95;8.00;;;;;;;2.17;44.88;94043.69;5027782;28;20107;-75
2022/02/25 04:13:01;;;;;;;14.52;7.35;;;;;;;2.24;45.20;94072.34;5021313;28;20064;-73
2022/02/25 04:15:27;;;;;;;14.85;7.95;;;;;;;2.13;45.21;94065.44;5026587;28;20043;-74
2022/02/25 04:17:53;;;;;;;13.23;8.40;;;;;;;2.29;45.16;94070.53;5031050;28;20063;-75
2022/02/25 04:20:18;;;;;;;13.15;8.32;;;;;;;2.15;45.53;94073.88;5024490;28;20028;-74
2022/02/25 04:22:44;;;;;;;16.17;8.90;;;;;;;2.19;45.31;94075.72;5024051;28;20134;-74
2022/02/25 04:25:10;;;;;;;12.88;7.35;;;;;;;2.05;45.42;94032.63;5020907;28;20077;-75
2022/02/25 04:27:36;;;;;;;10.65;6.57;;;;;;;1.97;45.47;94035.69;5026596;28;20045;-74
2022/02/25 04:30:03;;;;;;;12.85;6.65;;;;;;;2.12;45.45;94064.66;5025811;28;20572;-74
2022/02/25 04:32:29;;;;;;;7.53;3.80;;;;;;;2.01;45.25;94042.03;5022197;28;20045;-75
2022/02/25 04:34:54;;;;;;;6.53;3.78;;;;;;;2.19;44.87;94052.09;5024798;28;20021;-74
2022/02/25 04:37:19;;;;;;;6.82;4.00;;;;;;;1.76;44.74;93994.66;5023256;28;20033;-76
2022/02/25 04:39:45;;;;;;;5.38;3.35;;;;;;;2.15;44.93;94048.41;5023348;28;20060;-74
2022/02/25 04:42:11;;;;;;;9.60;5.25;;;;;;;2.15;44.92;94040.53;5041000;28;20045;-74
2022/02/25 04:44:37;;;;;;;9.13;5.70;;;;;;;2.27;44.71;94046.38;5027727;28;20128;-74
2022/02/25 04:47:04;;;;;;;9.00;6.57;;;;;;;2.20;44.94;94040.56;5028426;28;20390;-74
2022/02/25 04:49:29;;;;;;;11.93;6.57;;;;;;;2.21;45.07;94042.13;5028784;28;20033;-74
2022/02/25 04:51:55;;;;;;;10.63;7.15;;;;;;;2.27;45.17;94043.75;5031702;28;20396;-75
2022/02/25 04:54:21;;;;;;;12.70;7.30;;;;;;;2.29;45.07;94039.03;5024959;28;20052;-73
2022/02/25 04:56:46;;;;;;;9.27;5.63;;;;;;;2.05;44.88;94016.88;5026635;28;20048;-75
2022/02/25 04:59:16;;;;;;;8.48;4.05;;;;;;;2.23;44.43;94037.44;5026858;28;20021;-73
2022/02/25 05:01:41;;;;;;;5.18;3.15;;;;;;;2.17;44.37;94020.06;5030641;28;20037;-74
2022/02/25 05:04:06;;;;;;;4.68;2.58;;;;;;;2.13;44.34;94008.50;5031347;28;20605;-74
2022/02/25 05:06:32;;;;;;;2.97;2.05;;;;;;;2.26;44.11;94023.78;5032785;28;20564;-73
2022/02/25 05:08:58;;;;;;;4.50;2.53;;;;;;;2.24;44.11;94025.09;5026533;28;20033;-71
2022/02/25 05:11:23;;;;;;;3.95;2.63;;;;;;;2.08;44.19;94030.28;5023500;28;20588;-72
2022/02/25 05:13:49;;;;;;;5.22;2.95;;;;;;;2.16;43.83;94022.97;5026615;28;20342;-72
2022/02/25 05:21:42;;;;;;;11.13;5.20;;;;;;;2.11;44.44;94004.56;5025162;28;20156;-72
2022/02/25 05:24:07;;;;;;;9.68;5.93;;;;;;;2.07;44.92;94036.56;5033566;28;20532;-71
2022/02/25 05:26:33;;;;;;;9.30;6.25;;;;;;;2.05;45.25;94037.88;5022667;28;20480;-71
2022/02/25 05:28:59;;;;;;;16.80;7.30;;;;;;;2.16;45.05;94039.47;5024843;28;20071;-71
2022/02/25 05:31:26;;;;;;;10.15;5.57;;;;;;;2.01;45.27;94042.81;5026055;28;21948;-74
2022/02/25 05:33:51;;;;;;;8.10;5.13;;;;;;;2.10;45.28;94043.13;5026916;28;20482;-70
2022/02/25 05:36:17;;;;;;;7.05;4.30;;;;;;;2.02;45.22;94030.47;5024640;28;20068;-71
2022/02/25 05:38:42;;;;;;;10.95;6.85;;;;;;;2.10;45.58;94045.75;5023296;28;20120;-70
2022/02/25 05:41:10;;;;;;;12.05;6.18;;;;;;;2.12;45.52;94053.38;5025850;28;20108;-74
2022/02/25 05:43:35;;;;;;;8.90;5.75;;;;;;;2.16;45.65;94044.72;5031088;28;20142;-71
2022/02/25 05:46:01;;;;;;;11.68;6.05;;;;;;;2.30;45.50;94056.38;5027981;28;20535;-73
2022/02/25 05:48:26;;;;;;;16.63;7.93;;;;;;;2.35;45.46;94048.50;5023743;28;20053;-71
2022/02/25 05:50:52;;;;;;;18.15;9.32;;;;;;;2.08;46.18;94037.34;5025622;28;20030;-70
2022/02/25 05:53:17;;;;;;;22.25;11.15;;;;;;;2.06;46.32;94034.97;5026635;28;20017;-70
2022/02/25 05:55:43;;;;;;;24.83;10.98;;;;;;;2.34;46.21;94062.69;5030401;28;20025;-73
2022/02/25 05:58:08;;;;;;;23.30;11.23;;;;;;;2.06;46.86;94050.72;5022922;28;20573;-74
2022/02/25 06:00:34;;;;;;;21.60;11.25;;;;;;;2.20;46.77;94043.19;5032400;28;20354;-73
2022/02/25 06:03:00;;;;;;;27.60;12.70;;;;;;;2.38;46.55;94068.19;5023978;28;20041;-69
2022/02/25 06:05:25;;;;;;;24.48;12.82;;;;;;;1.80;47.55;94079.63;5023144;28;20531;-71
2022/02/25 06:07:51;;;;;;;34.17;14.93;;;;;;;1.52;48.49;94042.19;5029067;28;20424;-73
2022/02/25 06:10:16;;;;;;;24.67;13.10;;;;;;;1.99;47.70;94025.75;5024142;28;20041;-70
2022/02/25 06:12:42;;;;;;;26.92;12.35;;;;;;;2.52;46.63;94053.56;5027081;28;20091;-70
2022/02/25 06:15:08;;;;;;;23.50;12.73;;;;;;;2.51;46.74;94055.41;5021969;28;20683;-72
2022/02/25 06:17:50;;;;;;;26.40;15.30;;;;;;;1.24;49.06;94058.22;5022571;28;20079;-70
2022/02/25 06:20:20;;;;;;;18.83;12.48;;;;;;;1.58;49.23;94059.53;5021756;28;20122;-73
2022/02/25 06:22:49;;;;;;;29.90;15.73;;;;;;;1.78;48.84;94053.66;5021815;28;20032;-75
2022/02/25 06:25:15;;;;;;;24.23;14.48;;;;;;;1.33;49.72;94021.84;5023359;28;20057;-71
2022/02/25 06:27:41;;;;;;;24.88;13.73;;;;;;;1.98;49.00;94047.78;5024629;28;20029;-72
2022/02/25 06:30:08;;;;;;;28.30;14.50;;;;;;;2.55;47.62;94053.03;5021817;28;20040;-72
2022/02/25 06:32:34;;;;;;;26.25;14.73;;;;;;;2.53;47.81;94042.81;5021741;28;20566;-71
2022/02/25 06:34:59;;;;;;;25.42;13.45;;;;;;;2.16;48.28;94028.97;5016843;28;20499;-72
2022/02/25 06:37:28;;;;;;;24.73;12.32;;;;;;;2.40;47.87;94030.13;5021569;28;20050;-74
2022/02/25 06:39:55;;;;;;;23.00;14.80;;;;;;;2.68;47.17;94041.28;5024562;28;20025;-75
2022/02/25 06:42:21;;;;;;;24.70;15.15;;;;;;;2.40;48.02;94047.75;5027504;28;20083;-73
2022/02/25 06:44:46;;;;;;;26.85;15.02;;;;;;;2.75;47.25;94062.81;5021816;28;20517;-73
2022/02/25 06:47:13;;;;;;;22.38;13.23;;;;;;;2.61;47.53;94061.72;5014297;28;20068;-75
2022/02/25 06:49:39;;;;;;;27.13;14.77;;;;;;;2.66;47.08;94038.13;5021970;28;20410;-72
2022/02/25 06:52:13;;;;;;;29.55;14.63;;;;;;;2.83;47.40;94071.00;5043859;28;20033;-74
2022/02/25 06:54:39;;;;;;;29.05;14.43;;;;;;;2.78;47.59;94072.84;5018758;28;20039;-76
2022/02/25 06:57:06;;;;;;;27.67;14.60;;;;;;;2.85;47.03;94053.16;5021779;28;20033;-77
2022/02/25 06:59:31;;;;;;;28.05;14.23;;;;;;;3.19;46.85;94076.34;5023088;28;20595;-76
2022/02/25 07:01:57;;;;;;;26.42;15.25;;;;;;;3.07;46.14;94039.81;5017152;28;20021;-77
2022/02/25 07:04:23;;;;;;;24.88;15.32;;;;;;;3.36;46.65;94061.91;5020873;28;20050;-74
2022/02/25 07:06:51;;;;;;;31.15;16.15;;;;;;;3.18;46.88;94059.81;5018519;28;20143;-75
2022/02/25 07:09:27;;;;;;;32.55;15.93;;;;;;;3.06;46.87;94056.63;5030022;28;20033;-76
2022/02/25 07:11:52;;;;;;;32.85;15.85;;;;;;;2.86;46.74;94044.22;5016584;28;20490;-75
2022/02/25 07:14:18;;;;;;;34.85;16.35;;;;;;;2.69;46.99;94029.72;5026209;28;20236;-76
2022/02/25 07:16:43;;;;;;;21.98;14.65;;;;;;;2.07;48.14;93984.09;5017660;28;21151;-76
2022/02/25 07:19:09;;;;;;;27.00;16.27;;;;;;;3.03;46.69;94038.75;5020338;28;20542;-76
2022/02/25 07:21:34;;;;;;;25.42;15.68;;;;;;;3.12;46.34;94063.47;5016279;28;20042;-75
2022/02/25 07:24:00;;;;;;;21.10;14.80;;;;;;;2.95;46.29;94032.16;5027050;28;20056;-76
2022/02/25 07:26:26;;;;;;;19.60;12.63;;;;;;;3.00;46.25;94062.91;5011043;28;20833;-77
2022/02/25 07:28:51;;;;;;;26.48;14.73;;;;;;;3.20;46.00;94064.78;5024106;28;20033;-75
2022/02/25 07:31:23;;;;;;;26.85;14.30;;;;;;;3.24;46.05;94060.56;5012910;28;20406;-75
2022/02/25 07:33:48;;;;;;;19.42;13.23;;;;;;;3.21;46.00;94059.28;5026026;28;20089;-76
2022/02/25 07:36:14;;;;;;;23.40;13.15;;;;;;;3.22;46.38;94036.41;5021217;28;20043;-75
2022/02/25 07:38:39;;;;;;;21.95;13.30;;;;;;;2.87;47.25;94053.69;5011614;28;20037;-76
2022/02/25 07:41:06;;;;;;;25.52;14.18;;;;;;;2.21;48.47;94067.56;5024580;28;20036;-75
2022/02/25 07:43:32;;;;;;;26.88;16.23;;;;;;;1.95;48.99;94043.06;5022592;28;20040;-77
2022/02/25 07:45:57;;;;;;;26.52;16.08;;;;;;;2.12;49.19;94043.66;5022500;28;20618;-75
2022/02/25 07:48:36;;;;;;;32.50;14.32;;;;;;;1.89;50.11;94070.28;5018733;28;20652;-75
2022/02/25 07:51:02;;;;;;;30.23;15.40;;;;;;;2.02;49.66;94065.38;5026843;28;20041;-76
2022/02/25 07:53:30;;;;;;;24.10;14.35;;;;;;;2.32;49.08;94070.00;5019743;28;20063;-75
2022/02/25 07:55:56;;;;;;;29.25;14.20;;;;;;;2.36;48.53;94029.06;5018842;28;20036;-74
2022/02/25 07:58:21;;;;;;;28.92;15.07;;;;;;;2.15;48.77;94069.41;5023061;28;20325;-74
2022/02/25 08:00:47;;;;;;;25.70;15.02;;;;;;;2.22;49.09;94050.78;5024378;28;20037;-74
2022/02/25 08:03:12;;;;;;;23.70;13.43;;;;;;;2.94;47.69;94066.56;5025667;28;20033;-75
2022/02/25 08:05:37;;;;;;;28.95;15.77;;;;;;;2.88;47.26;94031.63;5026851;28;20711;-74
2022/02/25 08:08:05;;;;;;;36.65;17.55;;;;;;;2.88;47.59;94050.00;5023252;28;20029;-73
2022/02/25 08:10:32;;;;;;;35.85;16.00;;;;;;;2.65;48.01;94039.16;5023379;28;20017;-74
2022/02/25 08:13:08;;;;;;;29.45;15.98;;;;;;;3.30;47.26;94056.91;5025586;28;20462;-74
2022/02/25 08:15:34;;;;;;;31.33;16.40;;;;;;;2.33;48.08;94005.97;5024787;28;20034;-74
2022/02/25 08:18:01;;;;;;;28.52;16.50;;;;;;;2.74;47.60;94030.53;5033888;28;20030;-74
2022/02/25 08:20:26;;;;;;;26.35;15.25;;;;;;;3.24;46.76;94036.91;5022351;28;20062;-76
2022/02/25 08:22:52;;;;;;;30.73;15.93;;;;;;;3.33;45.68;94006.47;5036712;28;20518;-74
2022/02/25 08:25:17;;;;;;;27.05;15.38;;;;;;;3.86;45.19;94036.66;5026869;28;20534;-75
2022/02/25 08:27:46;;;;;;;29.55;14.95;;;;;;;3.70;45.39;94011.41;5023970;28;20040;-77
2022/02/25 08:30:14;;;;;;;22.60;12.43;;;;;;;3.99;44.74;94038.75;5028114;28;20029;-72
2022/02/25 08:32:45;;;;;;;27.50;13.35;;;;;;;4.12;44.00;94017.13;5026154;28;20388;-75
2022/02/25 08:35:10;;;;;;;27.85;14.00;;;;;;;4.24;44.08;94028.16;5024524;28;20557;-74
2022/02/25 08:37:37;;;;;;;29.20;13.55;;;;;;;4.04;44.08;94017.69;5027677;28;20032;-75
2022/02/25 08:40:07;;;;;;;23.83;13.57;;;;;;;3.77;44.77;94027.75;5028110;28;20125;-74
2022/02/25 08:42:50;;;;;;;16.08;10.07;;;;;;;3.23;45.52;94036.13;5025307;28;20045;-75
2022/02/25 08:45:16;;;;;;;22.02;11.20;;;;;;;3.22;45.53;94021.44;5027474;28;20102;-75
2022/02/25 08:47:45;;;;;;;20.83;12.27;;;;;;;2.85;46.38;94015.56;5027308;28;20132;-74
2022/02/25 08:50:14;;;;;;;21.17;11.85;;;;;;;3.01;46.20;94005.88;5039352;28;20040;-74
2022/02/25 08:52:50;;;;;;;24.45;14.15;;;;;;;3.41;46.02;94013.81;5029569;28;20116;-73
2022/02/25 08:55:26;;;;;;;21.58;11.43;;;;;;;3.04;46.10;94024.53;5032288;28;20893;-73
2022/02/25 08:57:52;;;;;;;26.38;13.38;;;;;;;2.67;46.54;93998.47;5028151;28;20036;-75
2022/02/25 09:00:34;;;;;;;17.98;11.13;;;;;;;3.02;46.54;94000.38;5029492;28;20033;-75
2022/02/25 09:02:59;;;;;;;20.27;12.05;;;;;;;2.91;46.53;94010.09;5034682;28;20052;-76
2022/02/25 09:05:25;;;;;;;17.65;10.55;;;;;;;3.50;45.78;94001.72;5025435;28;20037;-75
2022/02/25 09:07:53;;;;;;;18.65;10.85;;;;;;;3.21;45.43;94001.44;5039663;28;20071;-76
2022/02/25 09:10:19;;;;;;;28.45;12.00;;;;;;;3.21;45.88;93993.56;5025469;28;20037;-76
2022/02/25 09:12:47;;;;;;;21.52;11.82;;;;;;;3.58;45.79;93987.22;5027994;28;20868;-75
2022/02/25 09:15:15;;;;;;;21.80;10.77;;;;;;;2.89;45.52;93950.97;5025348;28;20029;-76
2022/02/25 09:17:41;;;;;;;22.80;10.73;;;;;;;3.10;45.63;93970.94;5025786;28;20033;-76
2022/02/25 09:20:09;;;;;;;14.00;9.25;;;;;;;3.13;46.00;93990.66;5023774;28;20044;-76
2022/02/25 09:22:35;;;;;;;18.10;10.18;;;;;;;2.97;45.72;93984.59;5019594;28;20144;-75
2022/02/25 09:25:01;;;;;;;19.33;10.55;;;;;;;3.26;45.66;93951.50;5032304;28;20059;-76
2022/02/25 09:27:28;;;;;;;14.93;9.63;;;;;;;3.50;45.02;93977.25;5018062;28;20190;-75
2022/02/25 09:29:53;;;;;;;25.15;11.55;;;;;;;3.41;45.22;93969.13;5025641;28;20045;-75
2022/02/25 09:32:19;;;;;;;19.85;11.50;;;;;;;3.60;44.53;93985.13;5029173;28;20029;-75
2022/02/25 09:34:45;;;;;;;25.20;12.80;;;;;;;3.34;45.30;93956.22;5020713;28;20138;-76
2022/02/25 09:37:12;;;;;;;36.03;14.07;;;;;;;3.35;45.36;93978.03;5028170;28;20052;-76
2022/02/25 09:39:37;;;;;;;20.33;10.63;;;;;;;3.35;45.22;93949.91;5023784;28;20049;-76
2022/02/25 09:42:05;;;;;;;22.70;11.63;;;;;;;3.60;45.00;93974.59;5028528;28;20045;-76
2022/02/25 09:44:31;;;;;;;22.73;10.88;;;;;;;3.57;44.61;93969.88;5022367;28;20570;-77
2022/02/25 09:46:56;;;;;;;20.10;10.43;;;;;;;3.60;44.65;93937.78;5024605;28;20037;-75
2022/02/25 09:49:31;;;;;;;17.77;9.65;;;;;;;3.97;43.90;93956.63;5028351;28;20029;-76
2022/02/25 09:52:00;;;;;;;20.52;10.27;;;;;;;4.16;43.48;93952.34;5030487;28;20082;-76
2022/02/25 09:54:26;;;;;;;22.65;10.77;;;;;;;4.10;42.71;93948.19;5022688;28;20668;-74
2022/02/25 09:56:52;;;;;;;16.42;10.07;;;;;;;4.28;42.52;93939.69;5020784;28;20045;-75
2022/02/25 09:59:18;;;;;;;19.42;11.25;;;;;;;4.33;42.26;93915.19;5040007;28;20025;-76
2022/02/25 10:01:45;;;;;;;17.55;10.65;;;;;;;4.17;42.33;93917.06;5026306;28;20074;-76
2022/02/25 10:04:10;;;;;;;21.13;11.18;;;;;;;4.41;41.87;93927.78;5021119;28;20580;-77
2022/02/25 10:06:36;;;;;;;21.45;11.07;;;;;;;4.62;41.45;93908.19;5029329;28;20136;-76
2022/02/25 10:09:13;;;;;;;26.17;11.57;;;;;;;5.13;41.47;93923.63;5023049;28;20386;-76
2022/02/25 10:12:15;;;;;;;18.38;10.68;;;;;;;4.93;41.14;93914.03;5019601;28;21480;-76
2022/02/25 10:14:44;;;;;;;22.75;12.43;;;;;;;5.42;40.85;93918.38;5028765;28;20025;-75
2022/02/25 10:17:12;;;;;;;22.33;12.60;;;;;;;5.08;40.57;93926.31;5023867;28;20032;-75
2022/02/25 10:19:39;;;;;;;23.85;13.63;;;;;;;5.03;41.04;93924.50;5023850;28;20431;-75
2022/02/25 10:22:29;;;;;;;27.48;12.02;;;;;;;5.37;40.51;93924.50;5026262;28;20573;-75
2022/02/25 10:24:57;;;;;;;22.95;11.45;;;;;;;5.56;39.38;93917.44;5022951;28;20103;-76
2022/02/25 10:27:29;;;;;;;15.35;9.48;;;;;;;5.46;38.97;93909.63;5020243;28;20499;-73
2022/02/25 10:30:01;;;;;;;22.80;10.90;;;;;;;5.21;39.07;93916.97;5038046;28;20041;-76
2022/02/25 10:32:41;;;;;;;18.27;10.23;;;;;;;5.35;39.20;93908.16;5023917;28;20041;-75
2022/02/25 10:35:28;;;;;;;16.40;10.45;;;;;;;5.52;38.44;93910.38;5025518;28;20051;-75
2022/02/25 10:38:02;;;;;;;17.80;8.23;;;;;;;6.08;37.00;93907.13;5035891;28;20665;-76
2022/02/25 10:40:32;;;;;;;15.60;8.55;;;;;;;6.34;36.82;93896.00;5038630;28;20044;-76
2022/02/25 10:42:59;;;;;;;22.42;9.77;;;;;;;6.62;36.34;93894.31;5024561;28;20045;-76
2022/02/25 10:46:06;;;;;;;20.52;9.95;;;;;;;6.84;36.40;93894.53;5025264;28;20124;-76
2022/02/25 10:48:33;;;;;;;22.75;11.13;;;;;;;5.45;36.94;93757.72;5021620;28;20524;-75
2022/02/25 10:51:08;;;;;;;16.92;9.30;;;;;;;6.59;36.11;93891.44;5025184;28;20055;-76
2022/02/25 10:53:51;;;;;;;18.88;10.10;;;;;;;6.23;36.53;93884.00;5027575;28;20048;-76
2022/02/25 10:56:20;;;;;;;17.80;9.13;;;;;;;6.92;35.84;93868.50;5019552;28;20033;-77
2022/02/25 10:58:50;;;;;;;14.75;9.40;;;;;;;7.16;35.22;93882.38;5019925;28;20049;-78
2022/02/25 11:01:20;;;;;;;20.70;10.00;;;;;;;6.99;35.43;93803.59;5020239;28;20029;-74
2022/02/25 11:04:03;;;;;;;19.27;10.35;;;;;;;7.55;36.10;93861.59;5025920;28;20083;-75
2022/02/25 11:06:31;;;;;;;19.45;9.38;;;;;;;7.23;34.90;93859.78;5025307;28;20516;-76
2022/02/25 11:08:57;;;;;;;21.63;10.48;;;;;;;7.07;35.12;93802.13;5029378;28;20494;-76
2022/02/25 11:11:23;;;;;;;16.08;9.80;;;;;;;7.00;35.48;93850.09;5022701;28;20218;-76
2022/02/25 11:13:55;;;;;;;16.00;8.93;;;;;;;6.91;34.97;93845.75;5025470;28;20028;-74
2022/02/25 11:16:24;;;;;;;19.15;11.73;;;;;;;6.56;35.82;93853.16;5021976;28;20557;-74
2022/02/25 11:18:50;;;;;;;18.38;10.98;;;;;;;6.62;35.78;93843.31;5039753;28;20552;-76
2022/02/25 11:21:16;;;;;;;14.80;10.45;;;;;;;7.33;34.59;93828.94;5023522;28;20051;-77
2022/02/25 11:23:51;;;;;;;29.00;11.23;;;;;;;7.44;33.94;93833.72;5021496;28;20623;-75
2022/02/25 11:26:20;;;;;;;;;;;;;;;7.68;33.84;93829.03;5019258;28;20031;-77
2022/02/25 11:28:46;;;;;;;14.20;9.23;;;;;;;7.87;33.89;93809.69;5031457;28;19926;-76
2022/02/25 11:31:33;;;;;;;18.55;10.48;;;;;;;7.43;34.22;93829.53;5021167;28;20033;-75
2022/02/25 11:34:00;;;;;;;14.48;9.50;;;;;;;7.42;34.31;93808.66;5039720;28;20037;-75
2022/02/25 11:36:47;;;;;;;18.58;10.25;;;;;;;7.85;33.43;93802.03;5018833;28;20498;-75
2022/02/25 11:39:18;;;;;;;22.88;9.15;;;;;;;7.38;33.89;93808.47;5022616;28;20117;-75
2022/02/25 11:41:49;;;;;;;15.77;9.70;;;;;;;7.88;33.35;93787.38;5024352;28;20077;-76